sensor_id;sensor_type;location;lat;lon;timestamp;P1;durP1;ratioP1;P2;durP2;ratioP2
27925;SDS011;15267;47.838;12.128;2023-09-18T00:01:52;7.93;;;5.85;;
27925;SDS011;15267;47.838;12.128;2023-09-18T00:04:18;8.50;;;5.95;;
27925;SDS011;15267;47.838;12.128;2023-09-18T00:06:44;7.15;;;5.82;;
27925;SDS011;15267;47.838;12.128;2023-09-18T00:09:10;6.97;;;5.60;;
27925;SDS011;15267;47.838;12.128;2023-09-18T00:11:38;5.82;;;5.22;;
27925;SDS011;15267;47.838;12.128;2023-09-18T00:14:04;5.68;;;5.18;;
27925;SDS011;15267;47.838;12.128;2023-09-18T00:16:30;6.03;;;5.43;;
27925;SDS011;15267;47.838;12.128;2023-09-18T00:18:57;9.10;;;6.40;;
27925;SDS011;15267;47.838;12.128;2023-09-18T00:21:23;7.53;;;5.95;;
27925;SDS011;15267;47.838;12.128;2023-09-18T00:23:50;7.60;;;6.00;;
27925;SDS011;15267;47.838;12.128;2023-09-18T00:26:16;8.73;;;5.85;;
27925;SDS011;15267;47.838;12.128;2023-09-18T00:28:42;6.55;;;5.63;;
27925;SDS011;15267;47.838;12.128;2023-09-18T00:31:08;7.38;;;5.57;;
27925;SDS011;15267;47.838;12.128;2023-09-18T00:33:34;8.50;;;5.80;;
27925;SDS011;15267;47.838;12.128;2023-09-18T00:36:00;8.95;;;6.05;;
27925;SDS011;15267;47.838;12.128;2023-09-18T00:38:27;8.05;;;5.93;;
27925;SDS011;15267;47.838;12.128;2023-09-18T00:40:53;7.80;;;5.90;;
27925;SDS011;15267;47.838;12.128;2023-09-18T00:43:19;6.43;;;5.82;;
27925;SDS011;15267;47.838;12.128;2023-09-18T00:45:46;8.40;;;6.20;;
27925;SDS011;15267;47.838;12.128;2023-09-18T00:48:14;6.85;;;6.00;;
27925;SDS011;15267;47.838;12.128;2023-09-18T00:50:40;7.05;;;5.13;;
27925;SDS011;15267;47.838;12.128;2023-09-18T00:53:10;7.47;;;6.03;;
27925;SDS011;15267;47.838;12.128;2023-09-18T00:55:37;6.80;;;6.10;;
27925;SDS011;15267;47.838;12.128;2023-09-18T00:58:04;7.47;;;5.68;;
27925;SDS011;15267;47.838;12.128;2023-09-18T01:00:30;7.88;;;5.60;;
27925;SDS011;15267;47.838;12.128;2023-09-18T01:02:56;6.00;;;5.30;;
27925;SDS011;15267;47.838;12.128;2023-09-18T01:05:22;6.55;;;5.88;;
27925;SDS011;15267;47.838;12.128;2023-09-18T01:07:48;7.45;;;5.18;;
27925;SDS011;15267;47.838;12.128;2023-09-18T01:10:14;6.65;;;5.35;;
27925;SDS011;15267;47.838;12.128;2023-09-18T01:13:14;12.35;;;5.20;;
27925;SDS011;15267;47.838;12.128;2023-09-18T01:15:39;7.63;;;5.90;;
27925;SDS011;15267;47.838;12.128;2023-09-18T01:18:09;7.90;;;5.90;;
27925;SDS011;15267;47.838;12.128;2023-09-18T01:20:35;6.63;;;5.20;;
27925;SDS011;15267;47.838;12.128;2023-09-18T01:23:01;5.85;;;5.32;;
27925;SDS011;15267;47.838;12.128;2023-09-18T01:25:27;7.47;;;5.57;;
27925;SDS011;15267;47.838;12.128;2023-09-18T01:27:53;7.78;;;5.68;;
27925;SDS011;15267;47.838;12.128;2023-09-18T01:30:19;8.35;;;6.00;;
27925;SDS011;15267;47.838;12.128;2023-09-18T01:32:45;6.90;;;5.82;;
27925;SDS011;15267;47.838;12.128;2023-09-18T01:35:11;8.88;;;6.30;;
27925;SDS011;15267;47.838;12.128;2023-09-18T01:37:38;7.97;;;6.55;;
27925;SDS011;15267;47.838;12.128;2023-09-18T01:40:05;9.38;;;6.18;;
27925;SDS011;15267;47.838;12.128;2023-09-18T01:42:31;10.65;;;6.25;;
27925;SDS011;15267;47.838;12.128;2023-09-18T01:44:58;7.57;;;6.13;;
27925;SDS011;15267;47.838;12.128;2023-09-18T01:47:24;7.28;;;6.53;;
27925;SDS011;15267;47.838;12.128;2023-09-18T01:49:51;10.25;;;7.15;;
27925;SDS011;15267;47.838;12.128;2023-09-18T01:52:17;8.93;;;6.68;;
27925;SDS011;15267;47.838;12.128;2023-09-18T01:54:43;8.77;;;6.47;;
27925;SDS011;15267;47.838;12.128;2023-09-18T01:57:09;6.50;;;5.85;;
27925;SDS011;15267;47.838;12.128;2023-09-18T01:59:37;8.15;;;6.78;;
27925;SDS011;15267;47.838;12.128;2023-09-18T02:02:03;7.68;;;6.13;;
27925;SDS011;15267;47.838;12.128;2023-09-18T02:04:31;7.55;;;6.07;;
27925;SDS011;15267;47.838;12.128;2023-09-18T02:06:57;6.60;;;6.00;;
27925;SDS011;15267;47.838;12.128;2023-09-18T02:09:23;8.35;;;6.95;;
27925;SDS011;15267;47.838;12.128;2023-09-18T02:11:50;8.40;;;6.90;;
27925;SDS011;15267;47.838;12.128;2023-09-18T02:14:16;10.48;;;7.00;;
27925;SDS011;15267;47.838;12.128;2023-09-18T02:16:42;8.00;;;7.20;;
27925;SDS011;15267;47.838;12.128;2023-09-18T02:19:09;7.68;;;6.72;;
27925;SDS011;15267;47.838;12.128;2023-09-18T02:21:36;7.72;;;6.93;;
27925;SDS011;15267;47.838;12.128;2023-09-18T02:24:02;7.60;;;6.07;;
27925;SDS011;15267;47.838;12.128;2023-09-18T02:26:28;9.20;;;7.35;;
27925;SDS011;15267;47.838;12.128;2023-09-18T02:28:55;8.00;;;7.20;;
27925;SDS011;15267;47.838;12.128;2023-09-18T02:31:21;8.40;;;7.20;;
27925;SDS011;15267;47.838;12.128;2023-09-18T02:33:48;7.68;;;6.60;;
27925;SDS011;15267;47.838;12.128;2023-09-18T02:36:14;9.20;;;7.38;;
27925;SDS011;15267;47.838;12.128;2023-09-18T02:38:40;8.43;;;6.65;;
27925;SDS011;15267;47.838;12.128;2023-09-18T02:41:06;8.82;;;7.15;;
27925;SDS011;15267;47.838;12.128;2023-09-18T02:43:32;7.60;;;6.80;;
27925;SDS011;15267;47.838;12.128;2023-09-18T02:45:58;7.63;;;6.68;;
27925;SDS011;15267;47.838;12.128;2023-09-18T02:48:24;8.43;;;7.25;;
27925;SDS011;15267;47.838;12.128;2023-09-18T02:50:50;11.43;;;7.10;;
27925;SDS011;15267;47.838;12.128;2023-09-18T02:53:17;8.68;;;7.78;;
27925;SDS011;15267;47.838;12.128;2023-09-18T02:55:44;8.57;;;7.70;;
27925;SDS011;15267;47.838;12.128;2023-09-18T02:58:11;8.55;;;7.57;;
27925;SDS011;15267;47.838;12.128;2023-09-18T03:00:44;8.60;;;7.70;;
27925;SDS011;15267;47.838;12.128;2023-09-18T03:03:10;9.23;;;7.47;;
27925;SDS011;15267;47.838;12.128;2023-09-18T03:05:36;7.90;;;7.10;;
27925;SDS011;15267;47.838;12.128;2023-09-18T03:08:02;8.40;;;6.60;;
27925;SDS011;15267;47.838;12.128;2023-09-18T03:10:32;8.40;;;6.88;;
27925;SDS011;15267;47.838;12.128;2023-09-18T03:12:59;10.73;;;7.50;;
27925;SDS011;15267;47.838;12.128;2023-09-18T03:15:25;9.05;;;6.90;;
27925;SDS011;15267;47.838;12.128;2023-09-18T03:17:51;8.00;;;6.82;;
27925;SDS011;15267;47.838;12.128;2023-09-18T03:20:17;8.52;;;7.50;;
27925;SDS011;15267;47.838;12.128;2023-09-18T03:22:43;9.57;;;7.25;;
27925;SDS011;15267;47.838;12.128;2023-09-18T03:25:09;10.07;;;8.38;;
27925;SDS011;15267;47.838;12.128;2023-09-18T03:27:35;9.10;;;8.20;;
27925;SDS011;15267;47.838;12.128;2023-09-18T03:30:01;10.05;;;7.13;;
27925;SDS011;15267;47.838;12.128;2023-09-18T03:32:27;10.77;;;7.80;;
27925;SDS011;15267;47.838;12.128;2023-09-18T03:34:53;7.93;;;7.13;;
27925;SDS011;15267;47.838;12.128;2023-09-18T03:37:19;8.63;;;7.53;;
27925;SDS011;15267;47.838;12.128;2023-09-18T03:39:45;9.82;;;8.10;;
27925;SDS011;15267;47.838;12.128;2023-09-18T03:42:11;7.95;;;7.22;;
27925;SDS011;15267;47.838;12.128;2023-09-18T03:44:37;9.63;;;7.28;;
27925;SDS011;15267;47.838;12.128;2023-09-18T03:47:03;8.45;;;7.35;;
27925;SDS011;15267;47.838;12.128;2023-09-18T03:49:29;8.63;;;7.65;;
27925;SDS011;15267;47.838;12.128;2023-09-18T03:51:55;8.55;;;7.35;;
27925;SDS011;15267;47.838;12.128;2023-09-18T03:54:21;10.65;;;7.82;;
27925;SDS011;15267;47.838;12.128;2023-09-18T03:56:47;8.68;;;7.80;;
27925;SDS011;15267;47.838;12.128;2023-09-18T03:59:13;9.05;;;8.00;;
27925;SDS011;15267;47.838;12.128;2023-09-18T04:01:39;8.85;;;7.97;;
27925;SDS011;15267;47.838;12.128;2023-09-18T04:04:05;9.13;;;8.23;;
27925;SDS011;15267;47.838;12.128;2023-09-18T04:06:39;9.18;;;8.27;;
27925;SDS011;15267;47.838;12.128;2023-09-18T04:09:06;8.43;;;7.25;;
27925;SDS011;15267;47.838;12.128;2023-09-18T04:11:32;8.57;;;7.78;;
27925;SDS011;15267;47.838;12.128;2023-09-18T04:13:58;9.70;;;7.32;;
27925;SDS011;15267;47.838;12.128;2023-09-18T04:16:25;8.00;;;7.30;;
27925;SDS011;15267;47.838;12.128;2023-09-18T04:18:52;9.65;;;7.18;;
27925;SDS011;15267;47.838;12.128;2023-09-18T04:21:18;8.05;;;7.25;;
27925;SDS011;15267;47.838;12.128;2023-09-18T04:23:44;9.60;;;7.63;;
27925;SDS011;15267;47.838;12.128;2023-09-18T04:26:10;8.80;;;7.40;;
27925;SDS011;15267;47.838;12.128;2023-09-18T04:28:40;8.00;;;7.20;;
27925;SDS011;15267;47.838;12.128;2023-09-18T04:31:07;7.40;;;6.70;;
27925;SDS011;15267;47.838;12.128;2023-09-18T04:33:34;9.00;;;6.95;;
27925;SDS011;15267;47.838;12.128;2023-09-18T04:36:00;9.68;;;7.30;;
27925;SDS011;15267;47.838;12.128;2023-09-18T04:38:26;9.68;;;7.70;;
27925;SDS011;15267;47.838;12.128;2023-09-18T04:40:59;10.30;;;7.70;;
27925;SDS011;15267;47.838;12.128;2023-09-18T04:43:25;9.48;;;7.45;;
27925;SDS011;15267;47.838;12.128;2023-09-18T04:45:51;7.85;;;7.05;;
27925;SDS011;15267;47.838;12.128;2023-09-18T04:48:17;9.80;;;7.95;;
27925;SDS011;15267;47.838;12.128;2023-09-18T04:50:43;8.68;;;7.88;;
27925;SDS011;15267;47.838;12.128;2023-09-18T04:53:09;9.32;;;7.75;;
27925;SDS011;15267;47.838;12.128;2023-09-18T04:55:35;7.63;;;6.93;;
27925;SDS011;15267;47.838;12.128;2023-09-18T04:58:03;7.95;;;7.10;;
27925;SDS011;15267;47.838;12.128;2023-09-18T05:00:29;10.32;;;7.35;;
27925;SDS011;15267;47.838;12.128;2023-09-18T05:02:56;8.13;;;7.38;;
27925;SDS011;15267;47.838;12.128;2023-09-18T05:05:25;8.30;;;7.18;;
27925;SDS011;15267;47.838;12.128;2023-09-18T05:07:51;9.07;;;6.95;;
27925;SDS011;15267;47.838;12.128;2023-09-18T05:10:17;10.75;;;7.90;;
27925;SDS011;15267;47.838;12.128;2023-09-18T05:12:43;10.57;;;6.97;;
27925;SDS011;15267;47.838;12.128;2023-09-18T05:15:09;10.65;;;7.03;;
27925;SDS011;15267;47.838;12.128;2023-09-18T05:17:39;8.68;;;7.10;;
27925;SDS011;15267;47.838;12.128;2023-09-18T05:20:12;9.88;;;8.27;;
27925;SDS011;15267;47.838;12.128;2023-09-18T05:22:39;8.65;;;6.82;;
27925;SDS011;15267;47.838;12.128;2023-09-18T05:25:05;9.73;;;7.63;;
27925;SDS011;15267;47.838;12.128;2023-09-18T05:27:32;9.93;;;7.75;;
27925;SDS011;15267;47.838;12.128;2023-09-18T05:29:58;9.77;;;7.10;;
27925;SDS011;15267;47.838;12.128;2023-09-18T05:32:24;12.55;;;7.22;;
27925;SDS011;15267;47.838;12.128;2023-09-18T05:34:49;11.13;;;6.80;;
27925;SDS011;15267;47.838;12.128;2023-09-18T05:37:15;8.73;;;7.07;;
27925;SDS011;15267;47.838;12.128;2023-09-18T05:39:41;7.82;;;6.43;;
27925;SDS011;15267;47.838;12.128;2023-09-18T05:42:07;12.85;;;6.53;;
27925;SDS011;15267;47.838;12.128;2023-09-18T05:44:33;7.82;;;6.35;;
27925;SDS011;15267;47.838;12.128;2023-09-18T05:46:59;8.73;;;6.88;;
27925;SDS011;15267;47.838;12.128;2023-09-18T05:49:28;8.48;;;6.13;;
27925;SDS011;15267;47.838;12.128;2023-09-18T05:51:55;8.85;;;7.05;;
27925;SDS011;15267;47.838;12.128;2023-09-18T05:54:21;13.30;;;7.38;;
27925;SDS011;15267;47.838;12.128;2023-09-18T05:56:47;8.73;;;6.63;;
27925;SDS011;15267;47.838;12.128;2023-09-18T05:59:13;9.80;;;7.15;;
27925;SDS011;15267;47.838;12.128;2023-09-18T06:01:41;11.40;;;6.88;;
27925;SDS011;15267;47.838;12.128;2023-09-18T06:04:06;8.40;;;6.05;;
27925;SDS011;15267;47.838;12.128;2023-09-18T06:06:32;10.82;;;6.28;;
27925;SDS011;15267;47.838;12.128;2023-09-18T06:08:58;9.88;;;7.32;;
27925;SDS011;15267;47.838;12.128;2023-09-18T06:11:24;11.63;;;8.43;;
27925;SDS011;15267;47.838;12.128;2023-09-18T06:13:50;10.18;;;6.38;;
27925;SDS011;15267;47.838;12.128;2023-09-18T06:16:16;8.13;;;6.60;;
27925;SDS011;15267;47.838;12.128;2023-09-18T06:18:42;11.38;;;6.53;;
27925;SDS011;15267;47.838;12.128;2023-09-18T06:21:10;9.82;;;6.80;;
27925;SDS011;15267;47.838;12.128;2023-09-18T06:23:36;10.13;;;6.32;;
27925;SDS011;15267;47.838;12.128;2023-09-18T06:26:02;9.07;;;5.93;;
27925;SDS011;15267;47.838;12.128;2023-09-18T06:28:29;8.65;;;7.00;;
27925;SDS011;15267;47.838;12.128;2023-09-18T06:30:55;13.65;;;7.05;;
27925;SDS011;15267;47.838;12.128;2023-09-18T06:33:22;10.27;;;6.40;;
27925;SDS011;15267;47.838;12.128;2023-09-18T06:35:48;10.50;;;6.15;;
27925;SDS011;15267;47.838;12.128;2023-09-18T06:38:14;8.70;;;6.03;;
27925;SDS011;15267;47.838;12.128;2023-09-18T06:40:40;8.05;;;5.82;;
27925;SDS011;15267;47.838;12.128;2023-09-18T06:43:06;9.43;;;6.07;;
27925;SDS011;15267;47.838;12.128;2023-09-18T06:45:32;8.48;;;5.70;;
27925;SDS011;15267;47.838;12.128;2023-09-18T06:47:58;11.13;;;6.20;;
27925;SDS011;15267;47.838;12.128;2023-09-18T06:50:25;8.23;;;5.72;;
27925;SDS011;15267;47.838;12.128;2023-09-18T06:52:51;6.65;;;5.57;;
27925;SDS011;15267;47.838;12.128;2023-09-18T06:55:17;7.70;;;5.43;;
27925;SDS011;15267;47.838;12.128;2023-09-18T06:57:43;8.63;;;6.30;;
27925;SDS011;15267;47.838;12.128;2023-09-18T07:00:09;11.05;;;6.13;;
27925;SDS011;15267;47.838;12.128;2023-09-18T07:02:35;12.02;;;6.05;;
27925;SDS011;15267;47.838;12.128;2023-09-18T07:05:01;10.55;;;5.70;;
27925;SDS011;15267;47.838;12.128;2023-09-18T07:07:27;8.95;;;5.95;;
27925;SDS011;15267;47.838;12.128;2023-09-18T07:09:53;8.65;;;5.70;;
27925;SDS011;15267;47.838;12.128;2023-09-18T07:12:19;9.93;;;5.55;;
27925;SDS011;15267;47.838;12.128;2023-09-18T07:14:46;10.85;;;5.38;;
27925;SDS011;15267;47.838;12.128;2023-09-18T07:17:12;12.27;;;5.22;;
27925;SDS011;15267;47.838;12.128;2023-09-18T07:19:38;8.18;;;4.70;;
27925;SDS011;15267;47.838;12.128;2023-09-18T07:22:04;11.10;;;4.38;;
27925;SDS011;15267;47.838;12.128;2023-09-18T07:24:30;10.90;;;4.72;;
27925;SDS011;15267;47.838;12.128;2023-09-18T07:26:56;8.38;;;3.95;;
27925;SDS011;15267;47.838;12.128;2023-09-18T07:29:25;11.35;;;4.32;;
27925;SDS011;15267;47.838;12.128;2023-09-18T07:31:51;11.10;;;4.13;;
27925;SDS011;15267;47.838;12.128;2023-09-18T07:34:17;10.30;;;3.97;;
27925;SDS011;15267;47.838;12.128;2023-09-18T07:36:43;13.38;;;3.63;;
27925;SDS011;15267;47.838;12.128;2023-09-18T07:39:09;12.32;;;4.07;;
27925;SDS011;15267;47.838;12.128;2023-09-18T07:41:36;12.02;;;3.67;;
27925;SDS011;15267;47.838;12.128;2023-09-18T07:44:02;10.00;;;4.07;;
27925;SDS011;15267;47.838;12.128;2023-09-18T07:46:28;10.73;;;4.25;;
27925;SDS011;15267;47.838;12.128;2023-09-18T07:48:54;10.68;;;4.10;;
27925;SDS011;15267;47.838;12.128;2023-09-18T07:51:20;12.40;;;3.95;;
27925;SDS011;15267;47.838;12.128;2023-09-18T07:53:46;14.65;;;4.45;;
27925;SDS011;15267;47.838;12.128;2023-09-18T07:56:13;10.00;;;3.85;;
27925;SDS011;15267;47.838;12.128;2023-09-18T07:58:39;10.10;;;4.10;;
27925;SDS011;15267;47.838;12.128;2023-09-18T08:01:05;10.20;;;3.50;;
27925;SDS011;15267;47.838;12.128;2023-09-18T08:03:31;9.75;;;4.55;;
27925;SDS011;15267;47.838;12.128;2023-09-18T08:05:58;8.52;;;4.03;;
27925;SDS011;15267;47.838;12.128;2023-09-18T08:08:24;13.85;;;4.38;;
27925;SDS011;15267;47.838;12.128;2023-09-18T08:10:51;11.65;;;3.78;;
27925;SDS011;15267;47.838;12.128;2023-09-18T08:13:17;14.38;;;4.25;;
27925;SDS011;15267;47.838;12.128;2023-09-18T08:15:43;8.95;;;3.95;;
27925;SDS011;15267;47.838;12.128;2023-09-18T08:18:12;11.95;;;4.05;;
27925;SDS011;15267;47.838;12.128;2023-09-18T08:20:44;11.02;;;4.13;;
27925;SDS011;15267;47.838;12.128;2023-09-18T08:23:10;15.70;;;4.40;;
27925;SDS011;15267;47.838;12.128;2023-09-18T08:25:37;13.13;;;4.00;;
27925;SDS011;15267;47.838;12.128;2023-09-18T08:28:03;14.95;;;3.72;;
27925;SDS011;15267;47.838;12.128;2023-09-18T08:30:31;10.52;;;3.60;;
27925;SDS011;15267;47.838;12.128;2023-09-18T08:32:57;13.07;;;3.75;;
27925;SDS011;15267;47.838;12.128;2023-09-18T08:35:23;14.60;;;4.15;;
27925;SDS011;15267;47.838;12.128;2023-09-18T08:37:54;15.02;;;3.88;;
27925;SDS011;15267;47.838;12.128;2023-09-18T08:40:20;14.10;;;3.85;;
27925;SDS011;15267;47.838;12.128;2023-09-18T08:42:46;12.07;;;3.60;;
27925;SDS011;15267;47.838;12.128;2023-09-18T08:45:19;19.00;;;4.20;;
27925;SDS011;15267;47.838;12.128;2023-09-18T08:47:47;17.45;;;3.88;;
27925;SDS011;15267;47.838;12.128;2023-09-18T08:50:13;15.18;;;4.10;;
27925;SDS011;15267;47.838;12.128;2023-09-18T08:52:41;13.68;;;3.50;;
27925;SDS011;15267;47.838;12.128;2023-09-18T08:55:07;14.25;;;3.67;;
27925;SDS011;15267;47.838;12.128;2023-09-18T08:57:33;17.30;;;3.92;;
27925;SDS011;15267;47.838;12.128;2023-09-18T09:00:00;21.15;;;4.57;;
27925;SDS011;15267;47.838;12.128;2023-09-18T09:02:32;18.98;;;3.80;;
27925;SDS011;15267;47.838;12.128;2023-09-18T09:04:57;13.55;;;3.78;;
27925;SDS011;15267;47.838;12.128;2023-09-18T09:07:25;16.15;;;4.13;;
27925;SDS011;15267;47.838;12.128;2023-09-18T09:09:51;18.13;;;4.13;;
27925;SDS011;15267;47.838;12.128;2023-09-18T09:12:45;12.27;;;3.92;;
27925;SDS011;15267;47.838;12.128;2023-09-18T09:15:04;20.00;;;3.30;;
27925;SDS011;15267;47.838;12.128;2023-09-18T09:17:30;17.63;;;3.58;;
27925;SDS011;15267;47.838;12.128;2023-09-18T09:20:07;15.55;;;3.70;;
27925;SDS011;15267;47.838;12.128;2023-09-18T09:22:34;13.57;;;3.65;;
27925;SDS011;15267;47.838;12.128;2023-09-18T09:25:00;17.38;;;3.58;;
27925;SDS011;15267;47.838;12.128;2023-09-18T09:27:26;14.63;;;3.72;;
27925;SDS011;15267;47.838;12.128;2023-09-18T09:29:58;18.75;;;3.83;;
27925;SDS011;15267;47.838;12.128;2023-09-18T09:32:24;17.23;;;3.40;;
27925;SDS011;15267;47.838;12.128;2023-09-18T09:34:56;14.80;;;3.58;;
27925;SDS011;15267;47.838;12.128;2023-09-18T09:37:31;19.38;;;3.78;;
27925;SDS011;15267;47.838;12.128;2023-09-18T09:39:57;13.98;;;3.50;;
27925;SDS011;15267;47.838;12.128;2023-09-18T09:42:37;17.65;;;3.55;;
27925;SDS011;15267;47.838;12.128;2023-09-18T09:45:04;13.93;;;3.33;;
27925;SDS011;15267;47.838;12.128;2023-09-18T09:47:34;19.05;;;3.13;;
27925;SDS011;15267;47.838;12.128;2023-09-18T09:50:05;16.95;;;3.55;;
27925;SDS011;15267;47.838;12.128;2023-09-18T09:52:32;15.55;;;3.40;;
27925;SDS011;15267;47.838;12.128;2023-09-18T09:54:59;12.80;;;3.60;;
27925;SDS011;15267;47.838;12.128;2023-09-18T09:57:24;17.15;;;3.42;;
27925;SDS011;15267;47.838;12.128;2023-09-18T09:59:50;16.63;;;3.17;;
27925;SDS011;15267;47.838;12.128;2023-09-18T10:02:19;13.73;;;3.05;;
27925;SDS011;15267;47.838;12.128;2023-09-18T10:04:47;14.43;;;3.30;;
27925;SDS011;15267;47.838;12.128;2023-09-18T10:07:15;11.90;;;3.28;;
27925;SDS011;15267;47.838;12.128;2023-09-18T10:09:43;17.77;;;3.05;;
27925;SDS011;15267;47.838;12.128;2023-09-18T10:12:10;13.93;;;3.53;;
27925;SDS011;15267;47.838;12.128;2023-09-18T10:14:36;20.80;;;3.28;;
27925;SDS011;15267;47.838;12.128;2023-09-18T10:17:06;17.52;;;3.40;;
27925;SDS011;15267;47.838;12.128;2023-09-18T10:19:38;17.50;;;2.97;;
27925;SDS011;15267;47.838;12.128;2023-09-18T10:22:18;12.70;;;3.20;;
27925;SDS011;15267;47.838;12.128;2023-09-18T10:24:47;13.77;;;3.00;;
27925;SDS011;15267;47.838;12.128;2023-09-18T10:27:17;9.98;;;3.08;;
27925;SDS011;15267;47.838;12.128;2023-09-18T10:29:46;13.63;;;3.00;;
27925;SDS011;15267;47.838;12.128;2023-09-18T10:32:16;15.35;;;3.17;;
27925;SDS011;15267;47.838;12.128;2023-09-18T10:34:45;14.43;;;3.45;;
27925;SDS011;15267;47.838;12.128;2023-09-18T10:37:12;15.93;;;2.97;;
27925;SDS011;15267;47.838;12.128;2023-09-18T10:39:38;13.95;;;3.28;;
27925;SDS011;15267;47.838;12.128;2023-09-18T10:42:04;16.00;;;3.22;;
27925;SDS011;15267;47.838;12.128;2023-09-18T10:44:32;11.80;;;2.88;;
27925;SDS011;15267;47.838;12.128;2023-09-18T10:46:58;18.23;;;3.47;;
27925;SDS011;15267;47.838;12.128;2023-09-18T10:49:25;14.80;;;3.13;;
27925;SDS011;15267;47.838;12.128;2023-09-18T10:51:55;14.07;;;3.15;;
27925;SDS011;15267;47.838;12.128;2023-09-18T10:54:22;15.68;;;3.05;;
27925;SDS011;15267;47.838;12.128;2023-09-18T10:56:48;14.95;;;3.33;;
27925;SDS011;15267;47.838;12.128;2023-09-18T10:59:15;13.70;;;3.08;;
27925;SDS011;15267;47.838;12.128;2023-09-18T11:01:42;11.88;;;3.05;;
27925;SDS011;15267;47.838;12.128;2023-09-18T11:04:08;14.80;;;3.28;;
27925;SDS011;15267;47.838;12.128;2023-09-18T11:09:26;12.02;;;3.13;;
27925;SDS011;15267;47.838;12.128;2023-09-18T11:17:30;13.10;;;3.03;;
27925;SDS011;15267;47.838;12.128;2023-09-18T11:22:34;19.92;;;3.63;;
27925;SDS011;15267;47.838;12.128;2023-09-18T11:27:54;17.08;;;3.53;;
27925;SDS011;15267;47.838;12.128;2023-09-18T11:30:21;14.20;;;3.08;;
27925;SDS011;15267;47.838;12.128;2023-09-18T11:32:47;12.77;;;3.00;;
27925;SDS011;15267;47.838;12.128;2023-09-18T11:35:13;14.38;;;2.90;;
27925;SDS011;15267;47.838;12.128;2023-09-18T11:37:42;15.48;;;3.15;;
27925;SDS011;15267;47.838;12.128;2023-09-18T11:40:30;11.90;;;2.78;;
27925;SDS011;15267;47.838;12.128;2023-09-18T11:45:44;18.90;;;3.53;;
27925;SDS011;15267;47.838;12.128;2023-09-18T11:48:12;13.60;;;3.78;;
27925;SDS011;15267;47.838;12.128;2023-09-18T11:50:40;13.98;;;3.45;;
27925;SDS011;15267;47.838;12.128;2023-09-18T11:53:07;14.93;;;3.35;;
27925;SDS011;15267;47.838;12.128;2023-09-18T11:55:33;27.30;;;4.88;;
27925;SDS011;15267;47.838;12.128;2023-09-18T11:57:59;16.20;;;3.33;;
27925;SDS011;15267;47.838;12.128;2023-09-18T12:00:26;16.15;;;2.88;;
27925;SDS011;15267;47.838;12.128;2023-09-18T12:02:54;31.83;;;5.30;;
27925;SDS011;15267;47.838;12.128;2023-09-18T12:05:21;15.38;;;3.92;;
27925;SDS011;15267;47.838;12.128;2023-09-18T12:07:51;32.60;;;5.13;;
27925;SDS011;15267;47.838;12.128;2023-09-18T12:10:17;16.08;;;3.42;;
27925;SDS011;15267;47.838;12.128;2023-09-18T12:12:43;16.33;;;3.10;;
27925;SDS011;15267;47.838;12.128;2023-09-18T12:15:13;14.27;;;3.03;;
27925;SDS011;15267;47.838;12.128;2023-09-18T12:17:40;16.95;;;2.85;;
27925;SDS011;15267;47.838;12.128;2023-09-18T12:20:06;45.38;;;5.22;;
27925;SDS011;15267;47.838;12.128;2023-09-18T12:22:32;46.55;;;5.60;;
27925;SDS011;15267;47.838;12.128;2023-09-18T12:25:08;23.77;;;4.32;;
27925;SDS011;15267;47.838;12.128;2023-09-18T12:27:35;12.10;;;2.35;;
27925;SDS011;15267;47.838;12.128;2023-09-18T12:30:02;30.38;;;2.40;;
27925;SDS011;15267;47.838;12.128;2023-09-18T12:32:29;10.88;;;1.88;;
27925;SDS011;15267;47.838;12.128;2023-09-18T12:34:57;8.10;;;1.45;;
27925;SDS011;15267;47.838;12.128;2023-09-18T12:37:23;11.05;;;2.00;;
27925;SDS011;15267;47.838;12.128;2023-09-18T12:39:49;11.98;;;1.70;;
27925;SDS011;15267;47.838;12.128;2023-09-18T12:42:17;37.72;;;4.75;;
27925;SDS011;15267;47.838;12.128;2023-09-18T12:44:45;26.33;;;3.42;;
27925;SDS011;15267;47.838;12.128;2023-09-18T12:47:12;21.90;;;2.67;;
27925;SDS011;15267;47.838;12.128;2023-09-18T12:49:38;22.30;;;3.40;;
27925;SDS011;15267;47.838;12.128;2023-09-18T12:52:05;6.35;;;1.40;;
27925;SDS011;15267;47.838;12.128;2023-09-18T12:54:42;25.02;;;2.30;;
27925;SDS011;15267;47.838;12.128;2023-09-18T12:57:10;7.55;;;1.60;;
27925;SDS011;15267;47.838;12.128;2023-09-18T12:59:37;7.30;;;1.38;;
27925;SDS011;15267;47.838;12.128;2023-09-18T13:02:04;5.63;;;1.00;;
27925;SDS011;15267;47.838;12.128;2023-09-18T13:04:31;23.73;;;3.40;;
27925;SDS011;15267;47.838;12.128;2023-09-18T13:07:06;18.92;;;2.42;;
27925;SDS011;15267;47.838;12.128;2023-09-18T13:09:33;1.60;;;0.70;;
27925;SDS011;15267;47.838;12.128;2023-09-18T13:12:00;8.05;;;0.90;;
27925;SDS011;15267;47.838;12.128;2023-09-18T13:14:27;5.93;;;0.77;;
27925;SDS011;15267;47.838;12.128;2023-09-18T13:16:53;3.33;;;0.80;;
27925;SDS011;15267;47.838;12.128;2023-09-18T13:19:25;3.58;;;0.90;;
27925;SDS011;15267;47.838;12.128;2023-09-18T13:21:51;1.40;;;0.60;;
27925;SDS011;15267;47.838;12.128;2023-09-18T13:24:27;3.08;;;0.70;;
27925;SDS011;15267;47.838;12.128;2023-09-18T13:26:54;2.65;;;0.80;;
27925;SDS011;15267;47.838;12.128;2023-09-18T13:29:20;4.95;;;0.73;;
27925;SDS011;15267;47.838;12.128;2023-09-18T13:31:46;3.58;;;0.82;;
27925;SDS011;15267;47.838;12.128;2023-09-18T13:34:12;4.07;;;0.90;;
27925;SDS011;15267;47.838;12.128;2023-09-18T13:36:42;1.77;;;0.63;;
27925;SDS011;15267;47.838;12.128;2023-09-18T13:39:08;1.85;;;0.52;;
27925;SDS011;15267;47.838;12.128;2023-09-18T13:41:34;2.35;;;0.55;;
27925;SDS011;15267;47.838;12.128;2023-09-18T13:44:00;2.45;;;0.82;;
27925;SDS011;15267;47.838;12.128;2023-09-18T13:46:26;1.63;;;0.50;;
27925;SDS011;15267;47.838;12.128;2023-09-18T13:48:52;2.70;;;0.80;;
27925;SDS011;15267;47.838;12.128;2023-09-18T13:51:18;2.05;;;0.57;;
27925;SDS011;15267;47.838;12.128;2023-09-18T13:53:44;3.55;;;0.60;;
27925;SDS011;15267;47.838;12.128;2023-09-18T13:56:12;0.95;;;0.60;;
27925;SDS011;15267;47.838;12.128;2023-09-18T13:58:38;1.08;;;0.60;;
27925;SDS011;15267;47.838;12.128;2023-09-18T14:01:06;1.58;;;0.80;;
27925;SDS011;15267;47.838;12.128;2023-09-18T14:03:32;1.02;;;0.80;;
27925;SDS011;15267;47.838;12.128;2023-09-18T14:05:59;1.38;;;0.63;;
27925;SDS011;15267;47.838;12.128;2023-09-18T14:08:25;2.92;;;0.70;;
27925;SDS011;15267;47.838;12.128;2023-09-18T14:10:51;2.63;;;1.13;;
27925;SDS011;15267;47.838;12.128;2023-09-18T14:13:17;3.72;;;0.80;;
27925;SDS011;15267;47.838;12.128;2023-09-18T14:15:43;2.42;;;0.90;;
27925;SDS011;15267;47.838;12.128;2023-09-18T14:18:09;3.20;;;1.00;;
27925;SDS011;15267;47.838;12.128;2023-09-18T14:20:35;2.28;;;0.90;;
27925;SDS011;15267;47.838;12.128;2023-09-18T14:23:01;3.83;;;0.88;;
27925;SDS011;15267;47.838;12.128;2023-09-18T14:25:28;2.92;;;0.93;;
27925;SDS011;15267;47.838;12.128;2023-09-18T14:27:55;0.98;;;0.77;;
27925;SDS011;15267;47.838;12.128;2023-09-18T14:30:21;3.38;;;1.20;;
27925;SDS011;15267;47.838;12.128;2023-09-18T14:32:51;2.38;;;1.00;;
27925;SDS011;15267;47.838;12.128;2023-09-18T14:35:17;2.33;;;0.90;;
27925;SDS011;15267;47.838;12.128;2023-09-18T14:37:43;2.90;;;0.90;;
27925;SDS011;15267;47.838;12.128;2023-09-18T14:40:09;1.02;;;0.50;;
27925;SDS011;15267;47.838;12.128;2023-09-18T14:42:36;1.45;;;0.80;;
27925;SDS011;15267;47.838;12.128;2023-09-18T14:45:02;2.10;;;0.70;;